Startpagina
METAR-TAF:

METAR-TAF

Vliegvelden :

Luchthaven Mitiga Internationaal

Tripoli, Libië

breedte: 32-54N, lengte: 13-17E, hoogte: 11 m

METAR: ontbreekt

Tijdstip: 01:17 (23:17 UTC)

Verwachting

Dit bericht is 6 uur en het 17 minuten geleden gemaakt, om 17:00 UTC
Verwachting geldig van 23 om 18 UTC tot 24 om 18 UTC
Wind 10 kt uit het noordnoordoosten
Zicht: 8000 m
Wijzigt naar
van 23 om 20 UTC tot 23 om 22 UTC
Wind 5 kt uit het oosten
Zicht: 6000 m
Wijzigt naar
van 24 om 12 UTC tot 24 om 14 UTC
Wind 15 kt uit het oosten

TAF: HLLM 231700Z 2318/2418 03010KT 8000 NSC BECMG 2320/2322 09005KT 6000 NSW BECMG 2412/2414 08015KT

Waarnemingen en weersverwachtingen van meer dan 4000 vliegvelden (METAR en TAF).

De beschikbare stations zijn de gele en rode punten op de kaart.

Ga met uw muis naar het station om de naam te zien.

Klik dan om waarnemingen en weersverwachtingen te zien.

kaart wijzigen: klik op de groene knoppen met een zwart kruis om in te zoomen, op de groene knop met een streepje om uit te zoomen of op de groene pijlen voor aangrenzende kaarten.


METAR-TAF: